sensor_id;sensor_type;location;lat;lon;timestamp;pressure;altitude;pressure_sealevel;temperature;humidity
66547;BME280;53400;50.364;14.874;2022-10-03T00:02:37;98873.13;;;9.62;100.00
66547;BME280;53400;50.364;14.874;2022-10-03T00:05:28;98869.53;;;9.69;100.00
66547;BME280;53400;50.364;14.874;2022-10-03T00:08:06;98879.03;;;9.76;100.00
66547;BME280;53400;50.364;14.874;2022-10-03T00:10:40;98880.56;;;9.72;100.00
66547;BME280;53400;50.364;14.874;2022-10-03T00:13:20;98883.38;;;9.65;100.00
66547;BME280;53400;50.364;14.874;2022-10-03T00:16:04;98871.84;;;9.77;100.00
66547;BME280;53400;50.364;14.874;2022-10-03T00:18:43;98879.41;;;9.68;100.00
66547;BME280;53400;50.364;14.874;2022-10-03T00:21:21;98880.69;;;9.65;100.00
66547;BME280;53400;50.364;14.874;2022-10-03T00:23:58;98882.78;;;9.63;100.00
66547;BME280;53400;50.364;14.874;2022-10-03T00:26:41;98879.28;;;9.63;100.00
66547;BME280;53400;50.364;14.874;2022-10-03T00:29:28;98881.03;;;9.69;100.00
66547;BME280;53400;50.364;14.874;2022-10-03T00:32:10;98889.06;;;9.57;100.00
66547;BME280;53400;50.364;14.874;2022-10-03T00:34:52;98876.59;;;9.51;100.00
66547;BME280;53400;50.364;14.874;2022-10-03T00:37:27;98880.00;;;9.47;100.00
66547;BME280;53400;50.364;14.874;2022-10-03T00:46:23;98882.88;;;9.45;100.00
66547;BME280;53400;50.364;14.874;2022-10-03T00:49:22;98883.00;;;9.50;100.00
66547;BME280;53400;50.364;14.874;2022-10-03T00:52:03;98891.38;;;9.42;100.00
66547;BME280;53400;50.364;14.874;2022-10-03T00:54:51;98895.78;;;9.48;100.00
66547;BME280;53400;50.364;14.874;2022-10-03T00:57:32;98903.59;;;9.50;100.00
66547;BME280;53400;50.364;14.874;2022-10-03T01:00:15;98898.91;;;9.45;100.00
66547;BME280;53400;50.364;14.874;2022-10-03T01:02:48;98910.91;;;9.54;100.00
66547;BME280;53400;50.364;14.874;2022-10-03T01:05:30;98906.47;;;9.48;100.00
66547;BME280;53400;50.364;14.874;2022-10-03T01:08:29;98915.31;;;9.49;100.00
66547;BME280;53400;50.364;14.874;2022-10-03T01:11:06;98906.94;;;9.45;100.00
66547;BME280;53400;50.364;14.874;2022-10-03T01:13:46;98911.22;;;9.46;100.00
66547;BME280;53400;50.364;14.874;2022-10-03T01:16:20;98910.56;;;9.51;100.00
66547;BME280;53400;50.364;14.874;2022-10-03T01:18:54;98908.00;;;9.44;100.00
66547;BME280;53400;50.364;14.874;2022-10-03T01:21:35;98904.06;;;9.47;100.00
66547;BME280;53400;50.364;14.874;2022-10-03T01:24:40;98911.25;;;9.58;100.00
66547;BME280;53400;50.364;14.874;2022-10-03T01:27:12;98912.31;;;9.57;100.00
66547;BME280;53400;50.364;14.874;2022-10-03T01:29:48;98898.44;;;9.36;100.00
66547;BME280;53400;50.364;14.874;2022-10-03T01:32:41;98901.66;;;9.15;100.00
66547;BME280;53400;50.364;14.874;2022-10-03T01:35:18;98904.81;;;9.24;100.00
66547;BME280;53400;50.364;14.874;2022-10-03T01:37:52;98908.03;;;9.14;100.00
66547;BME280;53400;50.364;14.874;2022-10-03T01:40:25;98904.81;;;9.24;100.00
66547;BME280;53400;50.364;14.874;2022-10-03T01:43:02;98908.44;;;9.29;100.00
66547;BME280;53400;50.364;14.874;2022-10-03T01:45:40;98905.44;;;9.37;100.00
66547;BME280;53400;50.364;14.874;2022-10-03T01:48:12;98908.09;;;9.49;100.00
66547;BME280;53400;50.364;14.874;2022-10-03T01:50:49;98916.56;;;9.46;100.00
66547;BME280;53400;50.364;14.874;2022-10-03T01:53:25;98918.81;;;9.37;100.00
66547;BME280;53400;50.364;14.874;2022-10-03T01:55:58;98917.84;;;9.32;100.00
66547;BME280;53400;50.364;14.874;2022-10-03T01:58:43;98919.25;;;9.34;100.00
66547;BME280;53400;50.364;14.874;2022-10-03T02:01:19;98916.00;;;9.44;100.00
66547;BME280;53400;50.364;14.874;2022-10-03T02:03:52;98923.78;;;9.46;100.00
66547;BME280;53400;50.364;14.874;2022-10-03T02:06:24;98924.97;;;9.50;100.00
66547;BME280;53400;50.364;14.874;2022-10-03T02:08:57;98929.03;;;9.64;100.00
66547;BME280;53400;50.364;14.874;2022-10-03T02:11:31;98931.03;;;9.57;100.00
66547;BME280;53400;50.364;14.874;2022-10-03T02:14:15;98927.19;;;9.53;100.00
66547;BME280;53400;50.364;14.874;2022-10-03T02:16:54;98936.59;;;9.55;100.00
66547;BME280;53400;50.364;14.874;2022-10-03T02:19:25;98935.88;;;9.48;100.00
66547;BME280;53400;50.364;14.874;2022-10-03T02:21:55;98930.66;;;9.41;100.00
66547;BME280;53400;50.364;14.874;2022-10-03T02:24:37;98937.63;;;9.42;100.00
66547;BME280;53400;50.364;14.874;2022-10-03T02:27:41;98943.22;;;9.41;100.00
66547;BME280;53400;50.364;14.874;2022-10-03T02:30:19;98941.34;;;9.41;100.00
66547;BME280;53400;50.364;14.874;2022-10-03T02:33:13;98938.56;;;9.48;
66547;BME280;53400;50.364;14.874;2022-10-03T02:39:11;98945.53;;;9.49;100.00
66547;BME280;53400;50.364;14.874;2022-10-03T02:42:02;98934.84;;;9.49;100.00
66547;BME280;53400;50.364;14.874;2022-10-03T02:45:17;98940.25;;;9.31;100.00
66547;BME280;53400;50.364;14.874;2022-10-03T02:48:13;98947.75;;;9.40;100.00
66547;BME280;53400;50.364;14.874;2022-10-03T02:51:06;98942.16;;;9.42;100.00
66547;BME280;53400;50.364;14.874;2022-10-03T02:57:05;98952.75;;;9.60;98.99
66547;BME280;53400;50.364;14.874;2022-10-03T03:03:21;98942.41;;;9.52;98.87
66547;BME280;53400;50.364;14.874;2022-10-03T03:09:24;98954.75;;;9.53;97.22
66547;BME280;53400;50.364;14.874;2022-10-03T03:12:18;98954.06;;;9.70;95.98
66547;BME280;53400;50.364;14.874;2022-10-03T03:17:54;98958.72;;;9.62;98.19
66547;BME280;53400;50.364;14.874;2022-10-03T03:20:49;98960.66;;;9.44;100.00
66547;BME280;53400;50.364;14.874;2022-10-03T03:23:42;98961.09;;;9.40;100.00
66547;BME280;53400;50.364;14.874;2022-10-03T03:26:28;98957.25;;;9.36;100.00
66547;BME280;53400;50.364;14.874;2022-10-03T03:29:04;98958.78;;;9.44;100.00
66547;BME280;53400;50.364;14.874;2022-10-03T03:31:38;98949.47;;;9.35;100.00
66547;BME280;53400;50.364;14.874;2022-10-03T03:34:12;98960.50;;;9.38;100.00
66547;BME280;53400;50.364;14.874;2022-10-03T03:36:49;98963.75;;;9.29;100.00
66547;BME280;53400;50.364;14.874;2022-10-03T03:39:41;98968.34;;;9.22;100.00
66547;BME280;53400;50.364;14.874;2022-10-03T03:42:30;98973.84;;;9.27;100.00
66547;BME280;53400;50.364;14.874;2022-10-03T03:45:07;98978.84;;;9.23;100.00
66547;BME280;53400;50.364;14.874;2022-10-03T03:47:57;98975.75;;;9.08;100.00
66547;BME280;53400;50.364;14.874;2022-10-03T03:50:35;98977.06;;;9.17;100.00
66547;BME280;53400;50.364;14.874;2022-10-03T03:53:20;98984.34;;;9.10;100.00
66547;BME280;53400;50.364;14.874;2022-10-03T03:56:01;98982.56;;;9.04;100.00
66547;BME280;53400;50.364;14.874;2022-10-03T03:58:37;98972.47;;;9.06;100.00
66547;BME280;53400;50.364;14.874;2022-10-03T04:01:27;98973.47;;;8.93;100.00
66547;BME280;53400;50.364;14.874;2022-10-03T04:04:03;98977.31;;;8.97;100.00
66547;BME280;53400;50.364;14.874;2022-10-03T04:06:45;98988.97;;;9.03;100.00
66547;BME280;53400;50.364;14.874;2022-10-03T04:09:28;98973.25;;;8.94;100.00
66547;BME280;53400;50.364;14.874;2022-10-03T04:12:01;98979.53;;;9.00;100.00
66547;BME280;53400;50.364;14.874;2022-10-03T04:14:48;98991.78;;;9.08;100.00
66547;BME280;53400;50.364;14.874;2022-10-03T04:17:35;98982.81;;;9.02;100.00
66547;BME280;53400;50.364;14.874;2022-10-03T04:20:43;98988.38;;;9.01;100.00
66547;BME280;53400;50.364;14.874;2022-10-03T04:23:24;98982.44;;;8.99;100.00
66547;BME280;53400;50.364;14.874;2022-10-03T04:26:13;98989.72;;;8.91;100.00
66547;BME280;53400;50.364;14.874;2022-10-03T04:28:55;98999.88;;;9.01;100.00
66547;BME280;53400;50.364;14.874;2022-10-03T04:31:38;98989.06;;;8.96;100.00
66547;BME280;53400;50.364;14.874;2022-10-03T04:34:15;98988.69;;;8.92;100.00
66547;BME280;53400;50.364;14.874;2022-10-03T04:37:00;98985.66;;;8.89;100.00
66547;BME280;53400;50.364;14.874;2022-10-03T04:39:36;98987.78;;;8.99;100.00
66547;BME280;53400;50.364;14.874;2022-10-03T04:42:15;98993.94;;;8.99;100.00
66547;BME280;53400;50.364;14.874;2022-10-03T04:45:02;98995.22;;;8.96;100.00
66547;BME280;53400;50.364;14.874;2022-10-03T04:47:34;98991.03;;;9.01;100.00
66547;BME280;53400;50.364;14.874;2022-10-03T04:50:17;98982.31;;;9.24;100.00
66547;BME280;53400;50.364;14.874;2022-10-03T04:52:50;98989.16;;;9.73;100.00
66547;BME280;53400;50.364;14.874;2022-10-03T04:55:25;98990.00;;;9.62;100.00
66547;BME280;53400;50.364;14.874;2022-10-03T04:57:58;99003.69;;;9.24;100.00
66547;BME280;53400;50.364;14.874;2022-10-03T05:00:30;98994.81;;;9.11;100.00
66547;BME280;53400;50.364;14.874;2022-10-03T05:03:05;99002.47;;;9.08;100.00
66547;BME280;53400;50.364;14.874;2022-10-03T05:05:51;99004.25;;;9.14;100.00
66547;BME280;53400;50.364;14.874;2022-10-03T05:08:34;99000.00;;;9.06;100.00
66547;BME280;53400;50.364;14.874;2022-10-03T05:11:15;99001.50;;;9.02;100.00
66547;BME280;53400;50.364;14.874;2022-10-03T05:13:55;99001.66;;;9.07;100.00
66547;BME280;53400;50.364;14.874;2022-10-03T05:16:30;99007.94;;;9.13;100.00
66547;BME280;53400;50.364;14.874;2022-10-03T05:19:08;99009.44;;;9.09;100.00
66547;BME280;53400;50.364;14.874;2022-10-03T05:21:49;99001.78;;;9.12;100.00
66547;BME280;53400;50.364;14.874;2022-10-03T05:24:27;99010.69;;;9.06;100.00
66547;BME280;53400;50.364;14.874;2022-10-03T05:27:12;99015.22;;;9.06;100.00
66547;BME280;53400;50.364;14.874;2022-10-03T05:29:51;99008.34;;;8.98;100.00
66547;BME280;53400;50.364;14.874;2022-10-03T05:32:26;99011.97;;;9.04;100.00
66547;BME280;53400;50.364;14.874;2022-10-03T05:35:11;99015.38;;;9.11;100.00
66547;BME280;53400;50.364;14.874;2022-10-03T05:37:57;99008.09;;;9.18;100.00
66547;BME280;53400;50.364;14.874;2022-10-03T05:40:31;99010.09;;;9.23;100.00
66547;BME280;53400;50.364;14.874;2022-10-03T05:43:08;99019.81;;;9.17;100.00
66547;BME280;53400;50.364;14.874;2022-10-03T05:45:46;99016.34;;;9.16;100.00
66547;BME280;53400;50.364;14.874;2022-10-03T05:48:22;99024.13;;;9.18;100.00
66547;BME280;53400;50.364;14.874;2022-10-03T05:51:02;99026.78;;;9.18;100.00
66547;BME280;53400;50.364;14.874;2022-10-03T05:56:57;99037.16;;;9.26;100.00
66547;BME280;53400;50.364;14.874;2022-10-03T05:59:42;99030.56;;;9.29;100.00
66547;BME280;53400;50.364;14.874;2022-10-03T06:02:57;99031.06;;;9.37;100.00
66547;BME280;53400;50.364;14.874;2022-10-03T06:05:41;99043.63;;;9.49;100.00
66547;BME280;53400;50.364;14.874;2022-10-03T06:08:25;99047.50;;;9.53;100.00
66547;BME280;53400;50.364;14.874;2022-10-03T06:14:11;99042.72;;;9.55;100.00
66547;BME280;53400;50.364;14.874;2022-10-03T06:16:48;99038.56;;;9.59;100.00
66547;BME280;53400;50.364;14.874;2022-10-03T06:19:33;99041.03;;;9.72;100.00
66547;BME280;53400;50.364;14.874;2022-10-03T06:22:34;99047.66;;;9.70;100.00
66547;BME280;53400;50.364;14.874;2022-10-03T06:34:15;99059.06;;;9.77;100.00
66547;BME280;53400;50.364;14.874;2022-10-03T06:37:09;99075.84;;;9.84;100.00
66547;BME280;53400;50.364;14.874;2022-10-03T06:39:59;99075.25;;;9.82;100.00
66547;BME280;53400;50.364;14.874;2022-10-03T06:43:00;99068.78;;;9.90;100.00
66547;BME280;53400;50.364;14.874;2022-10-03T06:46:18;99068.81;;;10.01;100.00
66547;BME280;53400;50.364;14.874;2022-10-03T06:58:35;99094.84;;;10.06;100.00
66547;BME280;53400;50.364;14.874;2022-10-03T07:01:37;99084.38;;;10.16;100.00
66547;BME280;53400;50.364;14.874;2022-10-03T07:07:13;99093.81;;;10.19;100.00
66547;BME280;53400;50.364;14.874;2022-10-03T07:13:09;99095.09;;;10.16;100.00
66547;BME280;53400;50.364;14.874;2022-10-03T07:15:51;99094.34;;;10.39;100.00
66547;BME280;53400;50.364;14.874;2022-10-03T07:18:45;99093.53;;;10.39;100.00
66547;BME280;53400;50.364;14.874;2022-10-03T07:21:55;99097.03;;;10.39;100.00
66547;BME280;53400;50.364;14.874;2022-10-03T07:27:44;99095.75;;;10.42;100.00
66547;BME280;53400;50.364;14.874;2022-10-03T07:30:16;99097.72;;;10.46;100.00
66547;BME280;53400;50.364;14.874;2022-10-03T07:33:30;99097.16;;;10.44;100.00
66547;BME280;53400;50.364;14.874;2022-10-03T07:36:21;99104.59;;;10.54;100.00
66547;BME280;53400;50.364;14.874;2022-10-03T07:39:51;99107.38;;;10.36;100.00
66547;BME280;53400;50.364;14.874;2022-10-03T07:45:29;99112.38;;;10.91;100.00
66547;BME280;53400;50.364;14.874;2022-10-03T07:48:17;99120.91;;;10.88;100.00
66547;BME280;53400;50.364;14.874;2022-10-03T07:50:55;99119.97;;;10.70;100.00
66547;BME280;53400;50.364;14.874;2022-10-03T07:56:52;99123.56;;;10.64;100.00
66547;BME280;53400;50.364;14.874;2022-10-03T08:03:18;99121.25;;;10.56;100.00
66547;BME280;53400;50.364;14.874;2022-10-03T08:06:00;99130.66;;;10.59;100.00
66547;BME280;53400;50.364;14.874;2022-10-03T08:08:54;99126.03;;;10.66;100.00
66547;BME280;53400;50.364;14.874;2022-10-03T08:14:42;99120.81;;;10.59;100.00
66547;BME280;53400;50.364;14.874;2022-10-03T08:17:31;99128.72;;;10.77;100.00
66547;BME280;53400;50.364;14.874;2022-10-03T08:20:15;99131.00;;;10.97;100.00
66547;BME280;53400;50.364;14.874;2022-10-03T08:22:53;99133.91;;;11.08;100.00
66547;BME280;53400;50.364;14.874;2022-10-03T08:25:26;99134.03;;;11.13;99.85
66547;BME280;53400;50.364;14.874;2022-10-03T08:28:21;99124.38;;;11.00;98.92
66547;BME280;53400;50.364;14.874;2022-10-03T08:31:14;99139.72;;;11.05;98.67
66547;BME280;53400;50.364;14.874;2022-10-03T08:37:00;99136.81;;;11.18;98.82
66547;BME280;53400;50.364;14.874;2022-10-03T08:39:49;99129.84;;;11.17;98.56
66547;BME280;53400;50.364;14.874;2022-10-03T08:42:49;99145.41;;;11.32;97.70
66547;BME280;53400;50.364;14.874;2022-10-03T08:45:38;99127.00;;;11.35;96.56
66547;BME280;53400;50.364;14.874;2022-10-03T08:54:49;99139.94;;;11.67;93.82
66547;BME280;53400;50.364;14.874;2022-10-03T08:57:38;99136.94;;;11.63;93.44
66547;BME280;53400;50.364;14.874;2022-10-03T09:00:18;99139.22;;;11.71;92.25
66547;BME280;53400;50.364;14.874;2022-10-03T09:09:00;99156.38;;;11.70;89.65
66547;BME280;53400;50.364;14.874;2022-10-03T09:15:03;99151.13;;;11.76;88.39
66547;BME280;53400;50.364;14.874;2022-10-03T09:18:00;99152.88;;;12.27;88.68
66547;BME280;53400;50.364;14.874;2022-10-03T09:21:08;99148.88;;;12.47;83.09
66547;BME280;53400;50.364;14.874;2022-10-03T09:23:58;99151.41;;;12.36;82.56
66547;BME280;53400;50.364;14.874;2022-10-03T09:29:58;99146.28;;;12.35;82.16
66547;BME280;53400;50.364;14.874;2022-10-03T09:32:45;99150.47;;;12.14;82.84
66547;BME280;53400;50.364;14.874;2022-10-03T09:38:56;99152.66;;;12.00;84.28
66547;BME280;53400;50.364;14.874;2022-10-03T09:41:42;99159.44;;;12.03;83.02
66547;BME280;53400;50.364;14.874;2022-10-03T09:44:38;99144.47;;;12.07;83.37
66547;BME280;53400;50.364;14.874;2022-10-03T09:50:43;99148.91;;;12.01;82.73
66547;BME280;53400;50.364;14.874;2022-10-03T09:53:43;99147.66;;;12.21;82.21
66547;BME280;53400;50.364;14.874;2022-10-03T09:56:40;99154.16;;;12.42;80.15
66547;BME280;53400;50.364;14.874;2022-10-03T09:59:18;99152.34;;;12.81;80.79
66547;BME280;53400;50.364;14.874;2022-10-03T10:01:53;99150.91;;;12.73;77.73
66547;BME280;53400;50.364;14.874;2022-10-03T10:04:48;99143.84;;;12.67;78.33
66547;BME280;53400;50.364;14.874;2022-10-03T10:07:56;99148.63;;;12.65;76.28
66547;BME280;53400;50.364;14.874;2022-10-03T10:10:50;99147.66;;;12.37;77.71
66547;BME280;53400;50.364;14.874;2022-10-03T10:16:38;99146.84;;;12.71;77.88
66547;BME280;53400;50.364;14.874;2022-10-03T10:19:18;99152.72;;;12.84;76.60
66547;BME280;53400;50.364;14.874;2022-10-03T10:25:15;99150.84;;;13.24;75.91
66547;BME280;53400;50.364;14.874;2022-10-03T10:28:12;99146.25;;;13.24;74.18
66547;BME280;53400;50.364;14.874;2022-10-03T10:37:49;99146.69;;;13.16;72.24
66547;BME280;53400;50.364;14.874;2022-10-03T10:44:16;99138.25;;;13.29;69.70
66547;BME280;53400;50.364;14.874;2022-10-03T10:47:08;99138.69;;;13.21;68.07
66547;BME280;53400;50.364;14.874;2022-10-03T10:52:49;99145.97;;;13.04;68.79
66547;BME280;53400;50.364;14.874;2022-10-03T10:59:23;99151.34;;;13.04;69.56
66547;BME280;53400;50.364;14.874;2022-10-03T11:05:41;99141.34;;;13.38;70.03
66547;BME280;53400;50.364;14.874;2022-10-03T11:18:04;99144.41;;;13.08;68.97
66547;BME280;53400;50.364;14.874;2022-10-03T11:21:24;99144.97;;;13.10;68.83
66547;BME280;53400;50.364;14.874;2022-10-03T11:39:24;99172.75;;;13.54;65.92
66547;BME280;53400;50.364;14.874;2022-10-03T11:41:58;99167.75;;;13.41;64.50
66547;BME280;53400;50.364;14.874;2022-10-03T11:44:29;99175.75;;;13.36;64.85
66547;BME280;53400;50.364;14.874;2022-10-03T11:47:14;99171.78;;;13.22;64.96
66547;BME280;53400;50.364;14.874;2022-10-03T11:50:26;99166.81;;;13.30;65.97
66547;BME280;53400;50.364;14.874;2022-10-03T11:53:09;99167.94;;;13.57;65.17
66547;BME280;53400;50.364;14.874;2022-10-03T11:55:41;99174.06;;;13.74;63.52
66547;BME280;53400;50.364;14.874;2022-10-03T11:58:26;99161.34;;;13.69;62.55
66547;BME280;53400;50.364;14.874;2022-10-03T12:01:05;99167.66;;;13.80;61.72
66547;BME280;53400;50.364;14.874;2022-10-03T12:03:45;99168.09;;;13.72;61.55
66547;BME280;53400;50.364;14.874;2022-10-03T12:06:16;99178.00;;;13.66;62.28
66547;BME280;53400;50.364;14.874;2022-10-03T12:09:16;99175.25;;;13.83;62.56
66547;BME280;53400;50.364;14.874;2022-10-03T12:11:50;99172.97;;;13.75;63.07
66547;BME280;53400;50.364;14.874;2022-10-03T12:14:25;99182.81;;;13.86;64.15
66547;BME280;53400;50.364;14.874;2022-10-03T12:17:03;99186.19;;;13.76;62.79
66547;BME280;53400;50.364;14.874;2022-10-03T12:19:34;99183.38;;;13.66;63.23
66547;BME280;53400;50.364;14.874;2022-10-03T12:22:11;99184.25;;;13.50;63.76
66547;BME280;53400;50.364;14.874;2022-10-03T12:24:39;99184.06;;;13.57;64.23
66547;BME280;53400;50.364;14.874;2022-10-03T12:27:14;99183.25;;;13.56;64.34
66547;BME280;53400;50.364;14.874;2022-10-03T12:29:53;99163.63;;;13.34;65.44
66547;BME280;53400;50.364;14.874;2022-10-03T12:32:29;99174.69;;;13.37;66.22
66547;BME280;53400;50.364;14.874;2022-10-03T12:35:06;99176.31;;;13.38;66.13
66547;BME280;53400;50.364;14.874;2022-10-03T12:37:42;99178.88;;;13.28;65.74
66547;BME280;53400;50.364;14.874;2022-10-03T12:40:15;99164.13;;;13.30;64.63
66547;BME280;53400;50.364;14.874;2022-10-03T12:42:47;99174.13;;;13.57;64.14
66547;BME280;53400;50.364;14.874;2022-10-03T12:45:23;99168.09;;;13.72;64.15
66547;BME280;53400;50.364;14.874;2022-10-03T12:47:59;99171.28;;;13.91;64.56
66547;BME280;53400;50.364;14.874;2022-10-03T12:50:42;99170.78;;;13.94;63.48
66547;BME280;53400;50.364;14.874;2022-10-03T12:53:23;99178.63;;;13.73;62.43
66547;BME280;53400;50.364;14.874;2022-10-03T12:56:00;99177.50;;;13.47;62.88
66547;BME280;53400;50.364;14.874;2022-10-03T12:58:38;99183.88;;;13.63;60.50
66547;BME280;53400;50.364;14.874;2022-10-03T13:01:18;99194.13;;;13.66;60.35
66547;BME280;53400;50.364;14.874;2022-10-03T13:03:50;99181.94;;;13.59;59.21
66547;BME280;53400;50.364;14.874;2022-10-03T13:06:39;99180.50;;;13.51;60.51
66547;BME280;53400;50.364;14.874;2022-10-03T13:09:15;99170.25;;;13.48;60.03
66547;BME280;53400;50.364;14.874;2022-10-03T13:11:53;99165.25;;;13.35;60.36
66547;BME280;53400;50.364;14.874;2022-10-03T13:17:25;99182.69;;;13.54;59.90
66547;BME280;53400;50.364;14.874;2022-10-03T13:19:57;99169.72;;;13.51;59.61
66547;BME280;53400;50.364;14.874;2022-10-03T13:22:30;99183.25;;;13.56;59.78
66547;BME280;53400;50.364;14.874;2022-10-03T13:25:03;99188.53;;;13.68;60.30
66547;BME280;53400;50.364;14.874;2022-10-03T13:27:39;99183.72;;;13.70;59.93
66547;BME280;53400;50.364;14.874;2022-10-03T13:30:17;99188.91;;;13.54;60.75
66547;BME280;53400;50.364;14.874;2022-10-03T13:32:47;99181.06;;;13.53;61.95
66547;BME280;53400;50.364;14.874;2022-10-03T13:35:21;99184.75;;;13.69;61.30
66547;BME280;53400;50.364;14.874;2022-10-03T13:38:21;99193.28;;;13.83;62.24
66547;BME280;53400;50.364;14.874;2022-10-03T13:41:04;99199.56;;;13.93;61.91
66547;BME280;53400;50.364;14.874;2022-10-03T13:43:36;99194.66;;;13.85;62.13
66547;BME280;53400;50.364;14.874;2022-10-03T13:46:12;99188.28;;;13.96;61.79
66547;BME280;53400;50.364;14.874;2022-10-03T13:48:40;99175.50;;;14.09;62.07
66547;BME280;53400;50.364;14.874;2022-10-03T13:51:18;99183.56;;;14.09;61.69
66547;BME280;53400;50.364;14.874;2022-10-03T13:53:58;99180.13;;;14.13;62.28
66547;BME280;53400;50.364;14.874;2022-10-03T13:56:41;99173.16;;;13.90;61.69
66547;BME280;53400;50.364;14.874;2022-10-03T13:59:18;99172.84;;;13.87;61.93
66547;BME280;53400;50.364;14.874;2022-10-03T14:01:56;99173.00;;;13.53;63.18
66547;BME280;53400;50.364;14.874;2022-10-03T14:04:42;99176.69;;;13.47;63.17
66547;BME280;53400;50.364;14.874;2022-10-03T14:07:18;99182.66;;;13.49;61.72
66547;BME280;53400;50.364;14.874;2022-10-03T14:10:07;99175.81;;;13.41;61.19
66547;BME280;53400;50.364;14.874;2022-10-03T14:12:47;99187.53;;;13.52;61.96
66547;BME280;53400;50.364;14.874;2022-10-03T14:15:25;99182.16;;;13.52;62.29
66547;BME280;53400;50.364;14.874;2022-10-03T14:17:59;99185.88;;;13.29;63.39
66547;BME280;53400;50.364;14.874;2022-10-03T14:20:34;99179.13;;;13.26;64.65
66547;BME280;53400;50.364;14.874;2022-10-03T14:23:19;99178.19;;;13.38;64.04
66547;BME280;53400;50.364;14.874;2022-10-03T14:25:54;99186.78;;;13.18;65.99
66547;BME280;53400;50.364;14.874;2022-10-03T14:28:27;99179.38;;;13.25;65.42
66547;BME280;53400;50.364;14.874;2022-10-03T14:31:04;99185.75;;;13.41;65.85
66547;BME280;53400;50.364;14.874;2022-10-03T14:33:42;99178.38;;;13.31;65.43
66547;BME280;53400;50.364;14.874;2022-10-03T14:36:27;99185.16;;;13.34;64.93
66547;BME280;53400;50.364;14.874;2022-10-03T14:39:06;99179.75;;;13.17;66.01
66547;BME280;53400;50.364;14.874;2022-10-03T14:41:45;99173.69;;;13.04;66.24
66547;BME280;53400;50.364;14.874;2022-10-03T14:44:15;99184.28;;;12.94;67.92
66547;BME280;53400;50.364;14.874;2022-10-03T14:46:47;99186.25;;;12.82;68.86
66547;BME280;53400;50.364;14.874;2022-10-03T14:49:20;99181.69;;;12.82;68.94
66547;BME280;53400;50.364;14.874;2022-10-03T14:51:50;99187.78;;;12.95;68.85
66547;BME280;53400;50.364;14.874;2022-10-03T14:54:20;99192.59;;;13.09;69.05
66547;BME280;53400;50.364;14.874;2022-10-03T14:56:49;99193.28;;;13.22;68.78
66547;BME280;53400;50.364;14.874;2022-10-03T14:59:21;99188.97;;;13.21;69.32
66547;BME280;53400;50.364;14.874;2022-10-03T15:01:50;99195.97;;;13.22;69.07
66547;BME280;53400;50.364;14.874;2022-10-03T15:04:26;99194.28;;;12.99;70.86
66547;BME280;53400;50.364;14.874;2022-10-03T15:06:54;99205.53;;;13.13;72.24
66547;BME280;53400;50.364;14.874;2022-10-03T15:09:25;99211.91;;;13.89;76.21
66547;BME280;53400;50.364;14.874;2022-10-03T15:12:01;99220.22;;;13.61;73.33
66547;BME280;53400;50.364;14.874;2022-10-03T15:14:31;99216.38;;;13.18;75.42
66547;BME280;53400;50.364;14.874;2022-10-03T15:17:00;99223.38;;;13.19;76.50
66547;BME280;53400;50.364;14.874;2022-10-03T15:19:35;99230.41;;;12.69;78.42
66547;BME280;53400;50.364;14.874;2022-10-03T15:22:20;99228.34;;;12.59;81.04
66547;BME280;53400;50.364;14.874;2022-10-03T15:24:48;99222.84;;;12.66;81.32
66547;BME280;53400;50.364;14.874;2022-10-03T15:27:18;99218.72;;;12.47;83.00
66547;BME280;53400;50.364;14.874;2022-10-03T15:29:46;99221.63;;;12.57;81.47
66547;BME280;53400;50.364;14.874;2022-10-03T15:32:21;99212.34;;;12.19;85.06
66547;BME280;53400;50.364;14.874;2022-10-03T15:34:51;99213.97;;;12.20;86.84
66547;BME280;53400;50.364;14.874;2022-10-03T15:37:20;99205.09;;;12.20;86.33
66547;BME280;53400;50.364;14.874;2022-10-03T15:39:48;99212.44;;;12.41;84.03
66547;BME280;53400;50.364;14.874;2022-10-03T15:42:21;99209.81;;;12.29;83.56
66547;BME280;53400;50.364;14.874;2022-10-03T15:44:51;99212.97;;;12.09;84.47
66547;BME280;53400;50.364;14.874;2022-10-03T15:47:20;99209.63;;;12.02;86.38
66547;BME280;53400;50.364;14.874;2022-10-03T15:49:52;99206.50;;;12.22;85.03
66547;BME280;53400;50.364;14.874;2022-10-03T15:52:23;99211.84;;;12.22;84.44
66547;BME280;53400;50.364;14.874;2022-10-03T15:54:52;99216.56;;;12.15;84.55
66547;BME280;53400;50.364;14.874;2022-10-03T15:57:25;99224.66;;;12.03;85.57
66547;BME280;53400;50.364;14.874;2022-10-03T15:59:54;99234.28;;;11.99;85.83
66547;BME280;53400;50.364;14.874;2022-10-03T16:02:26;99235.09;;;11.88;87.74
66547;BME280;53400;50.364;14.874;2022-10-03T16:04:56;99236.75;;;11.65;88.74
66547;BME280;53400;50.364;14.874;2022-10-03T16:07:29;99236.72;;;11.77;89.01
66547;BME280;53400;50.364;14.874;2022-10-03T16:10:07;99232.44;;;11.88;88.55
66547;BME280;53400;50.364;14.874;2022-10-03T16:12:50;99233.09;;;11.95;89.09
66547;BME280;53400;50.364;14.874;2022-10-03T16:15:22;99235.09;;;12.16;86.59
66547;BME280;53400;50.364;14.874;2022-10-03T16:17:55;99234.88;;;11.78;88.66
66547;BME280;53400;50.364;14.874;2022-10-03T16:20:26;99223.72;;;11.57;90.65
66547;BME280;53400;50.364;14.874;2022-10-03T16:22:54;99227.34;;;11.63;90.93
66547;BME280;53400;50.364;14.874;2022-10-03T16:25:23;99225.47;;;11.52;91.25
66547;BME280;53400;50.364;14.874;2022-10-03T16:27:53;99215.91;;;11.44;91.43
66547;BME280;53400;50.364;14.874;2022-10-03T16:30:23;99220.59;;;11.48;89.85
66547;BME280;53400;50.364;14.874;2022-10-03T16:33:02;99222.69;;;11.35;89.97
66547;BME280;53400;50.364;14.874;2022-10-03T16:35:34;99220.00;;;11.46;89.80
66547;BME280;53400;50.364;14.874;2022-10-03T16:38:04;99216.97;;;11.43;89.72